Time;durP1;ratioP1;P1;durP2;ratioP2;P2;SDS_P1;SDS_P2;PMS_P1;PMS_P2;Temp;Humidity;BMP_temperature;BMP_pressure;BME280_temperature;BME280_humidity;BME280_pressure;Samples;Min_cycle;Max_cycle;Signal;HPM_P1;HPM_P2
2022/02/20 00:00:38;;;;;;;4.60;1.95;;;;;;;;;;5062580;28;20020;-70
2022/02/20 00:03:24;;;;;;;6.57;2.40;;;;;;;;;;5056343;28;20030;-69
2022/02/20 00:06:10;;;;;;;6.00;1.88;;;;;;;;;;5070341;28;20023;-69
2022/02/20 00:08:55;;;;;;;5.88;1.50;;;;;;;;;;5076353;28;20249;-70
2022/02/20 00:11:40;;;;;;;6.43;1.80;;;;;;;;;;5088791;28;20398;-70
2022/02/20 00:14:26;;;;;;;9.18;1.70;;;;;;;;;;5062272;28;20098;-69
2022/02/20 00:17:11;;;;;;;10.00;2.22;;;;;;;;;;5088909;28;20036;-65
2022/02/20 00:19:56;;;;;;;7.72;2.15;;;;;;;;;;5075670;28;20136;-65
2022/02/20 00:22:41;;;;;;;8.77;1.77;;;;;;;;;;5075182;28;20039;-66
2022/02/20 00:25:31;;;;;;;7.60;2.33;;;;;;;;;;5061948;28;20035;-66
2022/02/20 00:28:16;;;;;;;6.63;1.85;;;;;;;;;;5069550;28;20064;-65
2022/02/20 00:31:02;;;;;;;5.63;2.22;;;;;;;;;;5069434;28;20035;-68
2022/02/20 00:33:47;;;;;;;8.45;2.22;;;;;;;;;;5069949;28;20029;-67
2022/02/20 00:36:33;;;;;;;11.48;2.92;;;;;;;;;;5060452;28;20082;-66
2022/02/20 00:39:18;;;;;;;9.05;2.03;;;;;;;;;;5075480;28;20478;-66
2022/02/20 00:42:04;;;;;;;7.72;1.90;;;;;;;;;;5060966;28;20039;-65
2022/02/20 00:44:49;;;;;;;7.55;1.80;;;;;;;;;;5075736;28;20028;-66
2022/02/20 00:47:34;;;;;;;8.98;2.13;;;;;;;;;;5075067;28;20111;-66
2022/02/20 00:50:20;;;;;;;5.65;1.77;;;;;;;;;;5074373;28;20016;-67
2022/02/20 00:53:05;;;;;;;4.43;1.75;;;;;;;;;;5074433;28;20044;-62
2022/02/20 00:55:50;;;;;;;5.68;1.90;;;;;;;;;;5075345;28;20138;-68
2022/02/20 00:58:35;;;;;;;6.97;1.92;;;;;;;;;;5074350;28;20036;-67
2022/02/20 01:01:21;;;;;;;10.82;2.25;;;;;;;;;;5075094;28;20024;-66
2022/02/20 01:04:08;;;;;;;9.32;2.20;;;;;;;;;;5074277;28;20542;-68
2022/02/20 01:06:54;;;;;;;8.93;1.67;;;;;;;;;;5070216;28;20032;-67
2022/02/20 01:09:39;;;;;;;9.63;2.63;;;;;;;;;;5074469;28;20024;-68
2022/02/20 01:12:24;;;;;;;5.93;1.50;;;;;;;;;;5075022;28;20080;-68
2022/02/20 01:15:10;;;;;;;4.97;1.70;;;;;;;;;;5054670;28;20119;-65
2022/02/20 01:17:56;;;;;;;5.78;2.00;;;;;;;;;;5069475;28;20062;-65
2022/02/20 01:20:41;;;;;;;3.45;1.40;;;;;;;;;;5055353;28;20024;-65
2022/02/20 01:23:26;;;;;;;6.43;1.45;;;;;;;;;;5057918;28;20031;-68
2022/02/20 01:26:11;;;;;;;5.93;1.45;;;;;;;;;;5074876;28;20036;-66
2022/02/20 01:28:57;;;;;;;9.10;1.60;;;;;;;;;;5074281;28;20023;-68
2022/02/20 01:31:42;;;;;;;6.55;1.73;;;;;;;;;;5074849;28;20077;-71
2022/02/20 01:34:27;;;;;;;11.82;2.00;;;;;;;;;;5074178;28;20278;-72
2022/02/20 01:37:12;;;;;;;12.75;1.85;;;;;;;;;;5074817;28;20031;-71
2022/02/20 01:39:57;;;;;;;7.88;1.88;;;;;;;;;;5073571;28;20395;-71
2022/02/20 01:42:43;;;;;;;8.48;2.72;;;;;;;;;;5074143;28;20066;-70
2022/02/20 01:45:28;;;;;;;7.47;1.75;;;;;;;;;;5064851;28;20426;-69
2022/02/20 01:48:13;;;;;;;6.45;1.90;;;;;;;;;;5078857;28;20021;-66
2022/02/20 01:50:59;;;;;;;5.97;2.20;;;;;;;;;;5071327;28;20036;-65
2022/02/20 01:53:44;;;;;;;7.38;1.60;;;;;;;;;;5074477;28;20028;-66
2022/02/20 01:56:29;;;;;;;13.18;2.22;;;;;;;;;;5073652;28;20039;-65
2022/02/20 01:59:16;;;;;;;10.23;2.45;;;;;;;;;;5074163;28;20483;-67
2022/02/20 02:02:01;;;;;;;7.22;1.83;;;;;;;;;;5054472;28;20182;-63
2022/02/20 02:04:47;;;;;;;7.68;1.90;;;;;;;;;;5055159;28;20107;-65
2022/02/20 02:07:32;;;;;;;6.95;2.58;;;;;;;;;;5074266;28;20391;-65
2022/02/20 02:10:18;;;;;;;11.73;3.83;;;;;;;;;;5059807;28;20040;-70
2022/02/20 02:13:03;;;;;;;4.75;1.55;;;;;;;;;;5074395;28;20612;-70
2022/02/20 02:15:49;;;;;;;11.85;2.45;;;;;;;;;;5073035;28;20518;-71
2022/02/20 02:18:36;;;;;;;6.53;1.52;;;;;;;;;;5074208;28;20234;-71
2022/02/20 02:21:21;;;;;;;8.45;1.50;;;;;;;;;;5073800;28;20248;-71
2022/02/20 02:24:08;;;;;;;7.40;1.40;;;;;;;;;;5060202;28;20035;-64
2022/02/20 02:26:53;;;;;;;10.10;2.90;;;;;;;;;;5073515;28;20024;-66
2022/02/20 02:29:43;;;;;;;5.43;1.55;;;;;;;;;;5060368;28;20081;-67
2022/02/20 02:32:28;;;;;;;8.88;1.90;;;;;;;;;;5059370;28;20032;-64
2022/02/20 02:35:13;;;;;;;5.93;1.42;;;;;;;;;;5074192;28;20027;-63
2022/02/20 02:37:59;;;;;;;6.60;1.65;;;;;;;;;;5073572;28;20372;-66
2022/02/20 02:40:44;;;;;;;5.85;1.55;;;;;;;;;;5060178;28;20016;-64
2022/02/20 02:43:29;;;;;;;8.02;2.15;;;;;;;;;;5073642;28;20031;-67
2022/02/20 02:46:14;;;;;;;6.90;1.55;;;;;;;;;;5067747;28;20436;-66
2022/02/20 02:49:01;;;;;;;6.07;1.50;;;;;;;;;;5054051;28;20024;-66
2022/02/20 02:51:46;;;;;;;4.80;1.60;;;;;;;;;;5071682;28;20797;-64
2022/02/20 02:54:32;;;;;;;4.75;1.17;;;;;;;;;;5077403;28;20028;-65
2022/02/20 02:57:17;;;;;;;4.38;1.35;;;;;;;;;;5076719;28;20016;-66
2022/02/20 03:00:03;;;;;;;4.70;1.70;;;;;;;;;;5077507;28;20454;-65
2022/02/20 03:02:49;;;;;;;4.90;1.60;;;;;;;;;;5076792;28;20032;-69
2022/02/20 03:05:34;;;;;;;6.88;1.65;;;;;;;;;;5075630;28;20063;-65
2022/02/20 03:08:19;;;;;;;5.95;2.00;;;;;;;;;;5074695;28;20024;-65
2022/02/20 03:11:05;;;;;;;6.15;1.35;;;;;;;;;;5062947;28;20035;-65
2022/02/20 03:13:50;;;;;;;6.35;1.80;;;;;;;;;;5062704;28;20040;-66
2022/02/20 03:16:35;;;;;;;4.55;1.48;;;;;;;;;;5076435;28;20031;-65
2022/02/20 03:19:21;;;;;;;6.82;1.38;;;;;;;;;;5076393;28;20240;-64
2022/02/20 03:22:06;;;;;;;7.65;1.55;;;;;;;;;;5076942;28;20031;-66
2022/02/20 03:24:51;;;;;;;3.00;1.30;;;;;;;;;;5076005;28;20028;-68
2022/02/20 03:27:36;;;;;;;6.15;1.35;;;;;;;;;;5076533;28;20054;-64
2022/02/20 03:30:22;;;;;;;5.57;1.80;;;;;;;;;;5056829;28;20127;-65
2022/02/20 03:33:07;;;;;;;8.70;2.67;;;;;;;;;;5056883;28;20123;-68
2022/02/20 03:35:52;;;;;;;5.57;1.33;;;;;;;;;;5056892;28;20024;-66
2022/02/20 03:38:39;;;;;;;7.28;1.45;;;;;;;;;;5059770;28;20031;-64
2022/02/20 03:41:24;;;;;;;8.00;1.95;;;;;;;;;;5076877;28;20031;-67
2022/02/20 03:44:09;;;;;;;5.13;1.52;;;;;;;;;;5062229;28;20032;-64
2022/02/20 03:46:55;;;;;;;7.50;1.83;;;;;;;;;;5076370;28;20020;-63
2022/02/20 03:49:40;;;;;;;3.28;1.40;;;;;;;;;;5089436;28;20051;-66
2022/02/20 03:52:25;;;;;;;7.55;1.40;;;;;;;;;;5076448;28;20028;-64
2022/02/20 03:55:10;;;;;;;3.42;1.13;;;;;;;;;;5075793;28;20382;-65
2022/02/20 03:57:57;;;;;;;3.78;1.17;;;;;;;;;;5076322;28;20387;-67
2022/02/20 04:00:42;;;;;;;4.38;1.80;;;;;;;;;;5076236;28;20230;-69
2022/02/20 04:03:28;;;;;;;6.43;1.05;;;;;;;;;;5062735;28;20028;-69
2022/02/20 04:06:13;;;;;;;5.60;1.40;;;;;;;;;;5068892;28;20113;-65
2022/02/20 04:08:58;;;;;;;5.07;1.13;;;;;;;;;;5076284;28;20457;-65
2022/02/20 04:11:43;;;;;;;2.83;1.10;;;;;;;;;;5089085;28;20032;-66
2022/02/20 04:14:29;;;;;;;3.10;0.90;;;;;;;;;;5090363;28;20061;-69
2022/02/20 04:17:14;;;;;;;2.92;1.10;;;;;;;;;;5055630;28;20444;-66
2022/02/20 04:19:59;;;;;;;6.03;1.42;;;;;;;;;;5054911;28;20063;-71
2022/02/20 04:22:45;;;;;;;9.32;2.38;;;;;;;;;;5055871;28;20381;-71
2022/02/20 04:25:30;;;;;;;3.45;1.05;;;;;;;;;;5054741;28;20468;-70
2022/02/20 04:28:16;;;;;;;3.03;1.17;;;;;;;;;;5055607;28;20074;-69
2022/02/20 04:31:01;;;;;;;5.07;1.05;;;;;;;;;;5041253;28;20422;-70
2022/02/20 04:33:46;;;;;;;4.85;1.10;;;;;;;;;;5055168;28;20031;-65
2022/02/20 04:36:37;;;;;;;3.08;0.98;;;;;;;;;;5055194;28;20133;-67
2022/02/20 04:39:23;;;;;;;1.70;0.85;;;;;;;;;;5055427;28;20040;-66
2022/02/20 04:42:08;;;;;;;2.13;1.05;;;;;;;;;;5054763;28;20093;-66
2022/02/20 04:44:53;;;;;;;0.90;0.82;;;;;;;;;;5041759;28;20040;-65
2022/02/20 04:47:38;;;;;;;7.53;0.93;;;;;;;;;;5051576;28;20119;-65
2022/02/20 04:50:24;;;;;;;3.10;1.02;;;;;;;;;;5041464;28;20020;-68
2022/02/20 04:53:09;;;;;;;3.58;1.00;;;;;;;;;;5054004;28;20546;-74
2022/02/20 04:55:54;;;;;;;3.60;0.98;;;;;;;;;;5055157;28;20063;-64
2022/02/20 04:58:39;;;;;;;3.83;1.08;;;;;;;;;;5035692;28;20033;-64
2022/02/20 05:01:25;;;;;;;1.75;1.00;;;;;;;;;;5049250;28;20024;-62
2022/02/20 05:04:10;;;;;;;5.93;1.08;;;;;;;;;;5035194;28;20060;-63
2022/02/20 05:06:56;;;;;;;2.85;0.80;;;;;;;;;;5054374;28;20020;-65
2022/02/20 05:09:41;;;;;;;1.95;0.93;;;;;;;;;;5055091;28;20082;-65
2022/02/20 05:12:27;;;;;;;2.67;1.35;;;;;;;;;;5054209;28;20032;-67
2022/02/20 05:15:12;;;;;;;1.95;0.70;;;;;;;;;;5054866;28;20031;-69
2022/02/20 05:17:57;;;;;;;3.80;1.13;;;;;;;;;;5054117;28;20140;-72
2022/02/20 05:20:43;;;;;;;4.63;0.90;;;;;;;;;;5061050;28;20077;-72
2022/02/20 05:23:28;;;;;;;2.42;0.80;;;;;;;;;;5074123;28;20027;-69
2022/02/20 05:26:13;;;;;;;5.75;1.52;;;;;;;;;;5074741;28;20023;-70
2022/02/20 05:28:59;;;;;;;1.23;0.73;;;;;;;;;;5074182;28;20032;-71
2022/02/20 05:31:44;;;;;;;2.92;1.55;;;;;;;;;;5074636;28;20127;-65
2022/02/20 05:34:29;;;;;;;2.90;0.90;;;;;;;;;;5073901;28;20392;-66
2022/02/20 05:37:14;;;;;;;4.25;1.00;;;;;;;;;;5074755;28;20024;-67
2022/02/20 05:39:59;;;;;;;2.17;0.80;;;;;;;;;;5073532;28;20486;-66
2022/02/20 05:42:45;;;;;;;2.22;0.90;;;;;;;;;;5074699;28;20024;-66
2022/02/20 05:45:30;;;;;;;2.40;1.00;;;;;;;;;;5060045;28;20073;-66
2022/02/20 05:48:17;;;;;;;2.03;0.85;;;;;;;;;;5071254;28;20095;-70
2022/02/20 05:51:03;;;;;;;3.38;1.13;;;;;;;;;;5068157;28;20510;-65
2022/02/20 05:53:48;;;;;;;2.05;0.95;;;;;;;;;;5043465;28;20166;-63
2022/02/20 05:56:33;;;;;;;3.38;0.77;;;;;;;;;;5074176;28;20429;-64
2022/02/20 05:59:18;;;;;;;3.80;1.00;;;;;;;;;;5087897;28;20028;-63
2022/02/20 06:02:04;;;;;;;4.55;1.10;;;;;;;;;;5074582;28;20352;-65
2022/02/20 06:04:49;;;;;;;3.20;1.10;;;;;;;;;;5069701;28;20055;-70
2022/02/20 06:07:34;;;;;;;5.30;1.77;;;;;;;;;;5040709;28;20123;-66
2022/02/20 06:10:20;;;;;;;2.10;0.90;;;;;;;;;;5064441;28;20073;-66
2022/02/20 06:13:05;;;;;;;3.03;0.88;;;;;;;;;;5088074;28;20093;-66
2022/02/20 06:15:50;;;;;;;2.42;1.10;;;;;;;;;;5073651;28;20166;-67
2022/02/20 06:18:36;;;;;;;5.22;1.63;;;;;;;;;;5074160;28;20056;-66
2022/02/20 06:21:21;;;;;;;4.05;1.02;;;;;;;;;;5073538;28;20023;-65
2022/02/20 06:24:06;;;;;;;1.60;0.70;;;;;;;;;;5074240;28;20024;-65
2022/02/20 06:26:51;;;;;;;1.27;0.80;;;;;;;;;;5073626;28;20024;-66
2022/02/20 06:29:37;;;;;;;4.13;1.15;;;;;;;;;;5078029;28;20463;-65
2022/02/20 06:32:22;;;;;;;2.53;0.82;;;;;;;;;;5077876;28;20121;-65
2022/02/20 06:35:08;;;;;;;3.45;1.02;;;;;;;;;;5076964;28;20042;-66
2022/02/20 06:37:53;;;;;;;2.25;1.00;;;;;;;;;;5057961;28;20070;-63
2022/02/20 06:40:38;;;;;;;4.82;1.05;;;;;;;;;;5074252;28;20069;-63
2022/02/20 06:43:23;;;;;;;3.25;0.85;;;;;;;;;;5077981;28;20111;-74
2022/02/20 06:46:08;;;;;;;1.25;0.98;;;;;;;;;;5076905;28;20035;-68
2022/02/20 06:48:54;;;;;;;1.40;0.77;;;;;;;;;;5076128;28;20077;-65
2022/02/20 06:51:39;;;;;;;2.90;1.10;;;;;;;;;;5076869;28;20097;-65
2022/02/20 06:54:27;;;;;;;2.08;0.70;;;;;;;;;;5071030;28;20415;-65
2022/02/20 06:57:14;;;;;;;1.73;0.80;;;;;;;;;;5076394;28;20486;-65
2022/02/20 06:59:59;;;;;;;2.40;0.77;;;;;;;;;;5077423;28;20024;-72
2022/02/20 07:02:45;;;;;;;1.27;0.70;;;;;;;;;;5090356;28;20486;-66
2022/02/20 07:05:30;;;;;;;1.65;0.70;;;;;;;;;;5086196;28;20028;-69
2022/02/20 07:08:15;;;;;;;2.58;0.93;;;;;;;;;;5076789;28;20111;-68
2022/02/20 07:11:01;;;;;;;0.60;0.60;;;;;;;;;;5077712;28;20103;-69
2022/02/20 07:13:46;;;;;;;1.90;0.90;;;;;;;;;;5076259;28;20458;-68
2022/02/20 07:16:32;;;;;;;0.70;0.60;;;;;;;;;;5077259;28;20115;-68
2022/02/20 07:19:17;;;;;;;1.98;0.80;;;;;;;;;;5056896;28;20056;-66
2022/02/20 07:22:03;;;;;;;3.00;0.85;;;;;;;;;;5058209;28;20054;-68
2022/02/20 07:24:48;;;;;;;2.03;0.77;;;;;;;;;;5077096;28;20112;-66
2022/02/20 07:27:40;;;;;;;2.28;0.82;;;;;;;;;;5074488;28;20032;-67
2022/02/20 07:30:28;;;;;;;1.73;0.80;;;;;;;;;;5056917;28;20123;-67
2022/02/20 07:33:15;;;;;;;0.93;0.73;;;;;;;;;;5064097;28;20118;-67
2022/02/20 07:36:00;;;;;;;1.77;1.02;;;;;;;;;;5076326;28;20024;-66
2022/02/20 07:38:45;;;;;;;1.83;0.70;;;;;;;;;;5075852;28;20110;-72
2022/02/20 07:41:31;;;;;;;2.83;0.77;;;;;;;;;;5062641;28;20028;-72
2022/02/20 07:44:16;;;;;;;1.30;1.00;;;;;;;;;;5069394;28;20032;-74
2022/02/20 07:47:01;;;;;;;1.48;0.93;;;;;;;;;;5076389;28;20474;-72
2022/02/20 07:49:47;;;;;;;2.17;0.85;;;;;;;;;;5075998;28;20036;-73
2022/02/20 07:52:32;;;;;;;2.72;0.90;;;;;;;;;;5062368;28;20490;-72
2022/02/20 07:55:17;;;;;;;3.25;0.90;;;;;;;;;;5075693;28;20038;-72
2022/02/20 07:58:04;;;;;;;3.58;0.90;;;;;;;;;;5056329;28;20024;-72
2022/02/20 08:00:49;;;;;;;1.95;0.80;;;;;;;;;;5070177;28;20102;-72
2022/02/20 08:03:34;;;;;;;2.20;0.90;;;;;;;;;;5070920;28;20029;-74
2022/02/20 08:06:19;;;;;;;1.98;0.75;;;;;;;;;;5070199;28;20050;-72
2022/02/20 08:09:05;;;;;;;5.35;0.80;;;;;;;;;;5073153;28;20063;-72
2022/02/20 08:11:51;;;;;;;1.45;0.90;;;;;;;;;;5076166;28;20429;-71
2022/02/20 08:14:36;;;;;;;2.45;1.23;;;;;;;;;;5075651;28;20032;-72
2022/02/20 08:17:22;;;;;;;0.98;0.63;;;;;;;;;;5076174;28;20441;-66
2022/02/20 08:20:07;;;;;;;1.67;0.80;;;;;;;;;;5074849;28;20048;-67
2022/02/20 08:22:53;;;;;;;4.78;1.83;;;;;;;;;;5062175;28;20113;-68
2022/02/20 08:25:39;;;;;;;2.22;1.20;;;;;;;;;;5074932;28;20536;-66
2022/02/20 08:28:24;;;;;;;2.90;1.17;;;;;;;;;;5075923;28;20020;-66
2022/02/20 08:31:09;;;;;;;2.38;1.02;;;;;;;;;;5074722;28;20538;-66
2022/02/20 08:33:55;;;;;;;5.07;1.08;;;;;;;;;;5075999;28;20065;-65
2022/02/20 08:36:40;;;;;;;2.17;1.02;;;;;;;;;;5075160;28;20387;-65
2022/02/20 08:39:25;;;;;;;1.73;1.00;;;;;;;;;;5061835;28;20103;-64
2022/02/20 08:42:11;;;;;;;2.22;1.08;;;;;;;;;;5074802;28;20024;-68
2022/02/20 08:44:57;;;;;;;2.50;1.15;;;;;;;;;;5075773;28;20042;-65
2022/02/20 08:47:43;;;;;;;3.53;0.85;;;;;;;;;;5075429;28;20128;-66
2022/02/20 08:50:28;;;;;;;4.15;1.13;;;;;;;;;;5069349;28;20037;-63
2022/02/20 08:53:14;;;;;;;3.05;1.15;;;;;;;;;;5061237;28;20360;-64
2022/02/20 08:55:59;;;;;;;2.85;1.15;;;;;;;;;;5074657;28;20046;-75
2022/02/20 08:58:44;;;;;;;2.40;1.20;;;;;;;;;;5075270;28;20031;-73
2022/02/20 09:01:29;;;;;;;3.92;1.38;;;;;;;;;;5060248;28;20586;-73
2022/02/20 09:04:17;;;;;;;1.17;0.80;;;;;;;;;;5075212;28;20040;-74
2022/02/20 09:07:03;;;;;;;3.50;0.88;;;;;;;;;;5071216;28;20027;-72
2022/02/20 09:09:48;;;;;;;3.00;0.93;;;;;;;;;;5068815;28;20031;-67
2022/02/20 09:12:34;;;;;;;2.63;1.30;;;;;;;;;;5074387;28;20485;-67
2022/02/20 09:15:19;;;;;;;2.00;1.13;;;;;;;;;;5060864;28;20034;-67
2022/02/20 09:18:05;;;;;;;1.95;0.88;;;;;;;;;;5074137;28;20115;-68
2022/02/20 09:20:50;;;;;;;1.08;0.93;;;;;;;;;;5074732;28;20062;-66
2022/02/20 09:23:35;;;;;;;2.88;0.93;;;;;;;;;;5074190;28;20043;-71
2022/02/20 09:26:20;;;;;;;4.25;1.30;;;;;;;;;;5074087;28;20382;-66
2022/02/20 09:29:06;;;;;;;2.17;1.02;;;;;;;;;;5074303;28;20431;-74
2022/02/20 09:31:51;;;;;;;1.10;1.00;;;;;;;;;;5074610;28;20024;-70
2022/02/20 09:34:37;;;;;;;1.45;0.80;;;;;;;;;;5054877;28;20040;-67
2022/02/20 09:37:22;;;;;;;1.75;0.80;;;;;;;;;;5056388;28;20028;-70
2022/02/20 09:40:08;;;;;;;1.50;0.90;;;;;;;;;;5068259;28;20021;-67
2022/02/20 09:42:54;;;;;;;2.80;1.05;;;;;;;;;;5073133;28;20089;-67
2022/02/20 09:45:44;;;;;;;2.40;1.10;;;;;;;;;;5060650;28;20024;-67
2022/02/20 09:48:29;;;;;;;2.15;1.00;;;;;;;;;;5073734;28;20028;-68
2022/02/20 09:51:14;;;;;;;1.00;0.65;;;;;;;;;;5074605;28;20063;-66
2022/02/20 09:54:00;;;;;;;4.10;1.40;;;;;;;;;;5074077;28;20422;-68
2022/02/20 09:56:45;;;;;;;1.80;0.80;;;;;;;;;;5060367;28;20024;-67
2022/02/20 09:59:31;;;;;;;1.50;0.75;;;;;;;;;;5059379;28;20043;-65
2022/02/20 10:02:17;;;;;;;2.08;1.00;;;;;;;;;;5075041;28;20106;-69
2022/02/20 10:05:04;;;;;;;3.92;0.95;;;;;;;;;;5077628;28;20502;-65
2022/02/20 10:07:51;;;;;;;2.85;0.70;;;;;;;;;;5078080;28;20054;-68
2022/02/20 10:10:36;;;;;;;1.27;1.17;;;;;;;;;;5077792;28;20442;-68
2022/02/20 10:13:24;;;;;;;3.03;1.45;;;;;;;;;;5078196;28;20487;-69
2022/02/20 10:16:16;;;;;;;2.28;0.75;;;;;;;;;;5072895;28;20046;-69
2022/02/20 10:19:02;;;;;;;2.05;0.80;;;;;;;;;;5063890;28;20416;-70
2022/02/20 10:21:48;;;;;;;1.90;0.88;;;;;;;;;;5078059;28;20475;-69
2022/02/20 10:24:33;;;;;;;1.40;0.93;;;;;;;;;;5077201;28;20497;-70
2022/02/20 10:27:18;;;;;;;1.23;0.70;;;;;;;;;;5078224;28;20012;-64
2022/02/20 10:30:07;;;;;;;0.80;0.77;;;;;;;;;;5076973;28;20024;-64
2022/02/20 10:33:03;;;;;;;1.88;1.05;;;;;;;;;;5077550;28;20028;-64
2022/02/20 10:35:52;;;;;;;2.35;0.90;;;;;;;;;;5077503;28;20024;-64
2022/02/20 10:38:37;;;;;;;0.80;0.70;;;;;;;;;;5078175;28;20043;-65
2022/02/20 10:41:23;;;;;;;1.70;0.90;;;;;;;;;;5077531;28;20450;-71
2022/02/20 10:44:08;;;;;;;0.80;0.80;;;;;;;;;;5078120;28;20463;-69
2022/02/20 10:47:07;;;;;;;2.05;1.20;;;;;;;;;;5060490;28;20016;-67
2022/02/20 10:49:53;;;;;;;1.40;0.90;;;;;;;;;;5077835;28;20237;-66
2022/02/20 10:52:39;;;;;;;1.75;0.90;;;;;;;;;;5077371;28;20032;-68
2022/02/20 10:55:33;;;;;;;1.98;0.93;;;;;;;;;;5076909;28;20027;-68
2022/02/20 10:58:23;;;;;;;2.15;1.05;;;;;;;;;;5063453;28;20035;-66
2022/02/20 11:01:08;;;;;;;;;;;;;;;;;;5063520;28;20074;-68
2022/02/20 11:04:00;;;;;;;1.13;0.70;;;;;;;;;;5077543;28;19911;-67
2022/02/20 11:06:49;;;;;;;1.30;0.90;;;;;;;;;;5070926;28;20028;-67
2022/02/20 11:09:34;;;;;;;1.45;0.98;;;;;;;;;;5077399;28;20427;-66
2022/02/20 11:12:21;;;;;;;3.60;0.70;;;;;;;;;;5055938;28;20497;-69
2022/02/20 11:15:07;;;;;;;1.70;0.73;;;;;;;;;;5076042;28;20028;-70
2022/02/20 11:17:54;;;;;;;1.38;0.65;;;;;;;;;;5075415;28;20106;-66
2022/02/20 11:20:42;;;;;;;1.67;0.70;;;;;;;;;;5063627;28;20048;-68
2022/02/20 11:23:28;;;;;;;2.08;0.93;;;;;;;;;;5062645;28;20028;-67
2022/02/20 11:26:14;;;;;;;2.78;1.00;;;;;;;;;;5077320;28;20035;-67
2022/02/20 11:29:00;;;;;;;1.30;0.90;;;;;;;;;;5069373;28;20475;-66
2022/02/20 11:31:45;;;;;;;2.40;1.02;;;;;;;;;;5058514;28;20101;-69
2022/02/20 11:34:31;;;;;;;1.25;0.70;;;;;;;;;;5076809;28;20035;-67
2022/02/20 11:37:16;;;;;;;0.82;0.80;;;;;;;;;;5076631;28;20055;-67
2022/02/20 11:40:12;;;;;;;1.10;0.70;;;;;;;;;;5076920;28;20441;-66
2022/02/20 11:43:00;;;;;;;2.25;0.80;;;;;;;;;;5076317;28;20028;-67
2022/02/20 11:46:05;;;;;;;1.48;0.70;;;;;;;;;;5077209;28;20028;-69
2022/02/20 11:49:03;;;;;;;1.00;0.73;;;;;;;;;;5056615;28;20031;-69
2022/02/20 11:52:03;;;;;;;0.80;0.80;;;;;;;;;;5076565;28;20418;-66
2022/02/20 11:54:54;;;;;;;3.67;1.20;;;;;;;;;;5076449;28;20044;-68
2022/02/20 11:57:40;;;;;;;1.33;0.70;;;;;;;;;;5066156;28;20022;-68
2022/02/20 12:00:25;;;;;;;1.80;0.80;;;;;;;;;;5076391;28;20031;-66
2022/02/20 12:03:19;;;;;;;0.70;0.68;;;;;;;;;;5075879;28;20027;-67
2022/02/20 12:06:08;;;;;;;0.95;0.52;;;;;;;;;;5076047;28;20024;-67
2022/02/20 12:08:56;;;;;;;1.02;0.70;;;;;;;;;;5061312;28;20024;-65
2022/02/20 12:11:42;;;;;;;1.88;0.88;;;;;;;;;;5061854;28;20028;-66
2022/02/20 12:14:30;;;;;;;1.55;0.80;;;;;;;;;;5076016;28;20525;-73
2022/02/20 12:17:16;;;;;;;2.60;0.90;;;;;;;;;;5075483;28;20482;-68
2022/02/20 12:20:01;;;;;;;2.55;0.80;;;;;;;;;;5061086;28;20492;-72
2022/02/20 12:22:47;;;;;;;2.15;1.25;;;;;;;;;;5056102;28;20035;-71
2022/02/20 12:25:36;;;;;;;1.70;0.85;;;;;;;;;;5054727;28;20047;-68
2022/02/20 12:28:34;;;;;;;1.48;0.73;;;;;;;;;;5042097;28;20089;-69
2022/02/20 12:31:25;;;;;;;1.05;0.88;;;;;;;;;;5035967;28;20032;-69
2022/02/20 12:34:30;;;;;;;4.47;1.27;;;;;;;;;;5037265;28;20032;-70
2022/02/20 12:37:17;;;;;;;1.67;0.82;;;;;;;;;;5055612;28;20024;-67
2022/02/20 12:40:07;;;;;;;1.05;0.70;;;;;;;;;;5055204;28;20227;-68
2022/02/20 12:42:57;;;;;;;2.55;1.00;;;;;;;;;;5055668;28;20024;-69
2022/02/20 12:45:44;;;;;;;;;;;;;;;;;;5055401;28;20289;-66
2022/02/20 12:48:29;;;;;;;2.78;1.00;;;;;;;;;;5055402;28;19911;-67
2022/02/20 12:51:15;;;;;;;1.85;1.35;;;;;;;;;;5054809;28;20452;-75
2022/02/20 12:54:00;;;;;;;4.30;0.90;;;;;;;;;;5054974;28;20028;-69
2022/02/20 12:56:58;;;;;;;1.33;0.80;;;;;;;;;;5054161;28;20047;-68
2022/02/20 12:59:56;;;;;;;2.00;0.93;;;;;;;;;;5045979;28;20494;-66
2022/02/20 13:02:43;;;;;;;1.75;0.98;;;;;;;;;;5035431;28;20029;-69
2022/02/20 13:05:29;;;;;;;2.15;0.95;;;;;;;;;;5040431;28;20464;-68
2022/02/20 13:08:19;;;;;;;2.03;1.10;;;;;;;;;;5055246;28;20455;-67
2022/02/20 13:11:06;;;;;;;2.63;0.90;;;;;;;;;;5040482;28;20379;-67
2022/02/20 13:13:53;;;;;;;1.83;0.80;;;;;;;;;;5054748;28;20040;-74
2022/02/20 13:16:52;;;;;;;1.73;0.85;;;;;;;;;;5054151;28;20597;-76
2022/02/20 13:19:37;;;;;;;2.70;0.90;;;;;;;;;;5069102;28;20052;-75
2022/02/20 13:22:28;;;;;;;3.30;0.88;;;;;;;;;;5073962;28;20346;-74
2022/02/20 13:25:13;;;;;;;1.58;0.85;;;;;;;;;;5058370;28;20028;-74
2022/02/20 13:28:00;;;;;;;3.20;1.20;;;;;;;;;;5054165;28;20400;-65
2022/02/20 13:30:46;;;;;;;1.52;1.00;;;;;;;;;;5028688;28;20024;-69
2022/02/20 13:33:33;;;;;;;1.73;0.88;;;;;;;;;;5058830;28;20537;-68
2022/02/20 13:36:19;;;;;;;0.70;0.70;;;;;;;;;;5067906;28;20112;-67
2022/02/20 13:39:06;;;;;;;4.20;0.80;;;;;;;;;;5034698;28;20277;-68
2022/02/20 13:41:52;;;;;;;0.75;0.70;;;;;;;;;;5038442;28;20361;-69
2022/02/20 13:44:40;;;;;;;3.03;1.02;;;;;;;;;;5074667;28;20073;-67
2022/02/20 13:47:29;;;;;;;1.80;0.80;;;;;;;;;;5059832;28;20028;-67
2022/02/20 13:50:18;;;;;;;1.98;1.05;;;;;;;;;;5074605;28;20161;-66
2022/02/20 13:53:03;;;;;;;1.27;0.93;;;;;;;;;;5073014;28;20445;-67
2022/02/20 13:55:52;;;;;;;3.38;0.80;;;;;;;;;;5074474;28;20028;-69
2022/02/20 13:58:40;;;;;;;1.50;1.00;;;;;;;;;;5052460;28;20467;-67
2022/02/20 14:01:38;;;;;;;1.52;0.70;;;;;;;;;;5074446;28;20032;-68
2022/02/20 14:04:32;;;;;;;3.40;0.80;;;;;;;;;;5058836;28;20024;-66
2022/02/20 14:07:22;;;;;;;1.70;0.80;;;;;;;;;;5052659;28;20032;-73
2022/02/20 14:10:09;;;;;;;2.00;0.90;;;;;;;;;;5051263;28;20028;-74
2022/02/20 14:12:54;;;;;;;2.00;0.80;;;;;;;;;;5047787;28;20051;-76
2022/02/20 14:15:40;;;;;;;2.00;0.90;;;;;;;;;;5074585;28;20074;-75
2022/02/20 14:18:25;;;;;;;1.77;0.90;;;;;;;;;;5073191;28;20036;-75
2022/02/20 14:21:14;;;;;;;2.65;1.00;;;;;;;;;;5074459;28;20081;-74
2022/02/20 14:23:59;;;;;;;1.52;0.70;;;;;;;;;;5073815;28;20076;-75
2022/02/20 14:26:44;;;;;;;1.65;0.85;;;;;;;;;;5065416;28;20428;-70
2022/02/20 14:29:29;;;;;;;0.90;0.90;;;;;;;;;;5073435;28;20152;-69
2022/02/20 14:32:23;;;;;;;1.70;0.85;;;;;;;;;;5074209;28;20035;-69
2022/02/20 14:35:19;;;;;;;0.52;0.52;;;;;;;;;;5074059;28;20055;-69
2022/02/20 14:38:05;;;;;;;2.13;1.00;;;;;;;;;;5074300;28;20036;-69
2022/02/20 14:40:50;;;;;;;4.18;0.73;;;;;;;;;;5073246;28;20028;-67
2022/02/20 14:43:36;;;;;;;2.42;1.00;;;;;;;;;;5061894;28;20430;-74
2022/02/20 14:46:22;;;;;;;1.60;0.90;;;;;;;;;;5068173;28;20052;-73
2022/02/20 14:49:07;;;;;;;1.90;0.77;;;;;;;;;;5067848;28;20021;-72
2022/02/20 14:51:52;;;;;;;1.30;0.70;;;;;;;;;;5071731;28;20047;-73
2022/02/20 14:54:38;;;;;;;2.28;0.70;;;;;;;;;;5059194;28;20064;-73
2022/02/20 14:57:24;;;;;;;3.63;1.02;;;;;;;;;;5068698;28;20024;-72
2022/02/20 15:00:10;;;;;;;1.02;0.82;;;;;;;;;;5062124;28;20078;-69
2022/02/20 15:02:55;;;;;;;1.27;0.90;;;;;;;;;;5063649;28;20024;-68
2022/02/20 15:05:41;;;;;;;1.77;0.80;;;;;;;;;;5073381;28;20378;-68
2022/02/20 15:08:26;;;;;;;1.20;0.60;;;;;;;;;;5077262;28;20023;-71
2022/02/20 15:11:13;;;;;;;2.15;0.93;;;;;;;;;;5076655;28;20071;-69
2022/02/20 15:13:59;;;;;;;1.17;0.80;;;;;;;;;;5070839;28;20060;-67
2022/02/20 15:16:44;;;;;;;2.28;0.80;;;;;;;;;;5076691;28;20111;-69
2022/02/20 15:19:30;;;;;;;2.03;0.80;;;;;;;;;;5076718;28;20052;-68
2022/02/20 15:22:15;;;;;;;0.70;0.70;;;;;;;;;;5076237;28;20042;-67
2022/02/20 15:25:05;;;;;;;1.85;0.88;;;;;;;;;;5077477;28;20108;-67
2022/02/20 15:27:51;;;;;;;1.65;0.80;;;;;;;;;;5070059;28;20037;-68
2022/02/20 15:30:36;;;;;;;1.08;0.70;;;;;;;;;;5070856;28;20020;-68
2022/02/20 15:33:21;;;;;;;1.58;1.25;;;;;;;;;;5074521;28;20047;-67
2022/02/20 15:36:07;;;;;;;3.30;0.73;;;;;;;;;;5076408;28;20054;-68
2022/02/20 15:38:54;;;;;;;5.55;1.30;;;;;;;;;;5062809;28;20032;-69
2022/02/20 15:41:40;;;;;;;3.35;1.65;;;;;;;;;;5076228;28;20020;-68
2022/02/20 15:44:25;;;;;;;1.35;1.00;;;;;;;;;;5076569;28;20056;-70
2022/02/20 15:47:10;;;;;;;1.40;1.10;;;;;;;;;;5075975;28;20024;-68
2022/02/20 15:49:55;;;;;;;3.72;1.63;;;;;;;;;;5090843;28;20085;-69
2022/02/20 15:52:41;;;;;;;3.63;1.75;;;;;;;;;;5061882;28;20093;-69
2022/02/20 15:55:27;;;;;;;6.10;2.90;;;;;;;;;;5062411;28;20020;-69
2022/02/20 15:58:12;;;;;;;2.15;0.95;;;;;;;;;;5060547;28;20038;-66
2022/02/20 16:00:57;;;;;;;2.00;1.00;;;;;;;;;;5075335;28;20478;-69
2022/02/20 16:03:42;;;;;;;2.58;1.00;;;;;;;;;;5075363;28;20032;-68
2022/02/20 16:06:28;;;;;;;2.40;1.23;;;;;;;;;;5076355;28;20028;-67
2022/02/20 16:09:13;;;;;;;0.80;0.80;;;;;;;;;;5075408;28;20391;-66
2022/02/20 16:11:59;;;;;;;3.53;1.33;;;;;;;;;;5076092;28;20115;-67
2022/02/20 16:14:45;;;;;;;1.65;0.90;;;;;;;;;;5061715;28;20036;-69
2022/02/20 16:17:34;;;;;;;1.85;0.90;;;;;;;;;;5076074;28;20031;-67
2022/02/20 16:20:19;;;;;;;1.90;0.98;;;;;;;;;;5055651;28;20079;-67
2022/02/20 16:23:05;;;;;;;2.05;1.13;;;;;;;;;;5075707;28;20075;-67
2022/02/20 16:25:50;;;;;;;3.05;0.90;;;;;;;;;;5061893;28;20028;-67
2022/02/20 16:28:36;;;;;;;1.58;0.90;;;;;;;;;;5075082;28;20016;-67
2022/02/20 16:31:21;;;;;;;0.98;0.88;;;;;;;;;;5076009;28;20218;-66
2022/02/20 16:34:07;;;;;;;3.15;0.93;;;;;;;;;;5075240;28;20020;-67
2022/02/20 16:36:56;;;;;;;1.58;0.90;;;;;;;;;;5075923;28;20035;-67